Time;durP1;ratioP1;P1;durP2;ratioP2;P2;SDS_P1;SDS_P2;PMS_P1;PMS_P2;Temp;Humidity;BMP_temperature;BMP_pressure;BME280_temperature;BME280_humidity;BME280_pressure;Samples;Min_cycle;Max_cycle;Signal;HPM_P1;HPM_P2
2022/10/31 00:01:46;;;;;;;26.60;20.60;;;11.10;99.90;;;;;;5036662;28;20214;-43
2022/10/31 00:04:15;;;;;;;23.47;20.20;;;11.10;99.90;;;;;;5040954;28;20753;-44
2022/10/31 00:06:42;;;;;;;29.30;20.70;;;11.00;99.90;;;;;;5032298;28;20668;-42
2022/10/31 00:09:11;;;;;;;32.90;21.10;;;11.00;99.90;;;;;;5022566;28;21922;-44
2022/10/31 00:11:37;;;;;;;30.13;21.53;;;11.00;99.90;;;;;;5028571;28;20211;-42
2022/10/31 00:14:04;;;;;;;25.97;20.77;;;11.10;99.90;;;;;;5039246;28;20222;-42
2022/10/31 00:16:32;;;;;;;28.47;21.40;;;10.90;99.90;;;;;;5041833;28;20812;-42
2022/10/31 00:19:00;;;;;;;26.60;19.60;;;11.00;99.90;;;;;;5036122;28;20199;-42
2022/10/31 00:21:30;;;;;;;27.97;21.30;;;10.70;99.90;;;;;;5037252;28;20298;-41
2022/10/31 00:23:58;;;;;;;26.30;20.00;;;11.20;99.90;;;;;;5029094;28;20223;-42
2022/10/31 00:26:25;;;;;;;24.83;19.93;;;11.00;99.90;;;;;;5037831;28;20195;-42
2022/10/31 00:28:52;;;;;;;26.80;18.33;;;11.10;99.90;;;;;;5025253;28;20210;-43
2022/10/31 00:31:19;;;;;;;29.37;20.67;;;11.10;99.90;;;;;;5036981;28;20200;-42
2022/10/31 00:33:47;;;;;;;25.27;19.53;;;11.20;99.90;;;;;;5034058;28;20696;-44
2022/10/31 00:36:15;;;;;;;27.10;19.27;;;11.10;99.90;;;;;;5034205;28;20212;-41
2022/10/31 00:38:44;;;;;;;29.17;20.80;;;11.20;99.90;;;;;;5040850;28;20199;-45
2022/10/31 00:41:11;;;;;;;27.93;18.70;;;11.20;99.90;;;;;;5032855;28;20210;-42
2022/10/31 00:43:41;;;;;;;29.20;19.53;;;11.30;99.90;;;;;;5023831;28;20700;-42
2022/10/31 00:46:09;;;;;;;28.43;19.10;;;11.30;99.90;;;;;;5042172;28;20202;-40
2022/10/31 00:48:36;;;;;;;24.27;18.63;;;11.40;99.90;;;;;;5040664;28;20664;-43
2022/10/31 00:51:03;;;;;;;27.23;19.27;;;11.30;99.90;;;;;;5042794;28;20195;-43
2022/10/31 00:53:30;;;;;;;19.57;17.20;;;11.40;99.90;;;;;;5037712;28;20222;-42
2022/10/31 00:55:58;;;;;;;27.00;18.30;;;11.30;99.90;;;;;;5026665;28;20798;-43
2022/10/31 00:58:25;;;;;;;22.23;17.13;;;11.20;99.90;;;;;;5032032;28;20832;-41
2022/10/31 01:00:54;;;;;;;30.20;20.13;;;11.30;99.90;;;;;;5041766;28;20856;-42
2022/10/31 01:03:22;;;;;;;30.00;19.27;;;11.40;99.90;;;;;;5041402;28;20215;-43
2022/10/31 01:05:57;;;;;;;24.77;17.87;;;11.40;99.90;;;;;;5044429;28;20249;-41
2022/10/31 01:08:25;;;;;;;28.77;18.73;;;11.40;99.90;;;;;;5037115;28;20252;-43
2022/10/31 01:11:01;;;;;;;27.47;17.37;;;11.30;99.90;;;;;;5030660;28;20638;-42
2022/10/31 01:13:28;;;;;;;22.40;17.33;;;11.30;99.90;;;;;;5025296;28;20219;-42
2022/10/31 01:15:56;;;;;;;26.70;18.97;;;11.20;99.90;;;;;;5046573;28;20820;-41
2022/10/31 01:18:23;;;;;;;26.37;19.33;;;11.30;99.90;;;;;;5041744;28;20211;-42
2022/10/31 01:20:58;;;;;;;26.30;19.03;;;11.20;99.90;;;;;;5045021;28;20199;-43
2022/10/31 01:23:25;;;;;;;28.47;18.33;;;11.20;99.90;;;;;;5029635;28;20238;-43
2022/10/31 01:26:02;;;;;;;28.27;19.00;;;11.30;99.90;;;;;;5035361;28;20207;-41
2022/10/31 01:28:29;;;;;;;26.93;19.10;;;11.50;99.90;;;;;;5016795;28;20214;-41
2022/10/31 01:30:56;;;;;;;27.73;20.73;;;11.40;99.90;;;;;;5045126;28;20215;-45
2022/10/31 01:33:22;;;;;;;26.97;20.60;;;11.70;99.90;;;;;;5041770;28;20218;-41
2022/10/31 01:35:49;;;;;;;31.70;21.20;;;12.00;99.90;;;;;;5044985;28;20206;-41
2022/10/31 01:38:16;;;;;;;31.60;23.00;;;12.00;99.90;;;;;;5040410;28;20207;-43
2022/10/31 01:40:44;;;;;;;33.87;21.60;;;12.10;99.90;;;;;;5042120;28;20981;-41
2022/10/31 01:43:14;;;;;;;35.30;22.33;;;12.10;99.90;;;;;;5030547;28;20220;-42
2022/10/31 01:45:42;;;;;;;33.70;21.93;;;12.20;99.90;;;;;;5032754;28;20212;-42
2022/10/31 01:48:15;;;;;;;37.63;22.53;;;12.30;99.90;;;;;;5045335;28;20245;-42
2022/10/31 01:50:45;;;;;;;38.73;22.83;;;12.30;99.90;;;;;;5037344;28;20203;-42
2022/10/31 01:53:13;;;;;;;34.87;22.87;;;12.30;99.90;;;;;;5041029;28;20623;-41
2022/10/31 01:55:42;;;;;;;32.23;22.53;;;12.40;99.90;;;;;;5038569;28;20210;-42
2022/10/31 01:58:12;;;;;;;33.20;21.90;;;12.50;99.90;;;;;;5031571;28;20269;-43
2022/10/31 02:00:43;;;;;;;31.43;22.10;;;12.50;99.90;;;;;;5035707;28;20198;-42
2022/10/31 02:03:12;;;;;;;32.47;21.97;;;12.30;99.90;;;;;;5043705;28;20223;-42
2022/10/31 02:05:39;;;;;;;33.93;20.20;;;12.40;99.90;;;;;;5041696;28;20209;-43
2022/10/31 02:08:09;;;;;;;35.77;22.57;;;12.30;99.90;;;;;;5040442;28;20207;-43
2022/10/31 02:10:37;;;;;;;36.80;23.13;;;12.40;99.90;;;;;;5036984;28;20802;-42
2022/10/31 02:13:07;;;;;;;30.40;21.80;;;12.40;99.90;;;;;;5043839;28;20273;-41
2022/10/31 02:15:46;;;;;;;33.97;22.23;;;12.40;99.90;;;;;;5016842;28;20212;-42
2022/10/31 02:18:13;;;;;;;32.60;22.63;;;12.50;99.90;;;;;;5045072;28;20260;-42
2022/10/31 02:20:50;;;;;;;30.10;21.07;;;12.40;99.90;;;;;;5041188;28;20203;-43
2022/10/31 02:23:42;;;;;;;32.57;21.17;;;12.40;99.90;;;;;;5030822;28;20234;-44
2022/10/31 02:26:32;;;;;;;41.00;22.13;;;12.50;99.90;;;;;;5037911;28;20207;-41
2022/10/31 02:29:20;;;;;;;33.67;21.27;;;12.40;99.90;;;;;;5025316;28;20565;-43
2022/10/31 02:31:55;;;;;;;31.23;20.33;;;12.40;99.90;;;;;;5041224;28;20199;-44
2022/10/31 02:34:27;;;;;;;35.67;22.27;;;12.40;99.90;;;;;;5041076;28;20215;-42
2022/10/31 02:36:59;;;;;;;39.67;22.13;;;12.40;99.90;;;;;;5031024;28;20819;-41
2022/10/31 02:39:31;;;;;;;34.87;22.83;;;12.40;99.90;;;;;;5035012;28;20200;-41
2022/10/31 02:42:05;;;;;;;35.77;23.57;;;12.50;99.90;;;;;;5034246;28;20223;-42
2022/10/31 02:44:38;;;;;;;37.40;23.33;;;12.60;99.90;;;;;;5030697;28;20217;-43
2022/10/31 02:47:12;;;;;;;39.20;23.63;;;12.60;99.90;;;;;;5037648;28;20203;-42
2022/10/31 02:49:45;;;;;;;41.10;24.63;;;12.60;99.90;;;;;;5040100;28;20668;-42
2022/10/31 02:52:18;;;;;;;42.87;24.17;;;12.60;99.90;;;;;;5044912;28;20664;-42
2022/10/31 02:54:47;;;;;;;34.57;23.80;;;12.70;99.90;;;;;;5040223;28;20249;-41
2022/10/31 02:57:18;;;;;;;35.90;23.40;;;12.70;99.90;;;;;;5038128;28;20213;-41
2022/10/31 02:59:48;;;;;;;44.07;24.17;;;12.60;99.90;;;;;;5040743;28;20199;-43
2022/10/31 03:02:42;;;;;;;30.40;21.87;;;12.60;99.90;;;;;;5026269;28;20223;-41
2022/10/31 03:05:20;;;;;;;38.10;21.60;;;12.50;99.90;;;;;;5040544;28;20196;-42
2022/10/31 03:07:58;;;;;;;39.87;24.60;;;12.50;99.90;;;;;;5039523;28;20206;-42
2022/10/31 03:10:35;;;;;;;32.83;21.70;;;12.50;99.90;;;;;;5043831;28;20199;-42
2022/10/31 03:13:10;;;;;;;36.80;22.30;;;12.40;99.90;;;;;;5034745;28;20308;-45
2022/10/31 03:15:40;;;;;;;42.00;23.20;;;12.30;99.90;;;;;;5040945;28;20769;-42
2022/10/31 03:18:12;;;;;;;36.73;22.80;;;12.30;99.90;;;;;;5025838;28;20215;-42
2022/10/31 03:20:46;;;;;;;38.43;24.00;;;12.40;99.90;;;;;;5039969;28;20241;-44
2022/10/31 03:23:18;;;;;;;31.87;21.30;;;12.30;99.90;;;;;;5043326;28;20223;-43
2022/10/31 03:25:51;;;;;;;28.73;19.63;;;12.30;99.90;;;;;;5038972;28;20195;-42
2022/10/31 03:28:24;;;;;;;38.43;21.73;;;12.30;99.90;;;;;;5038498;28;20664;-42
2022/10/31 03:30:54;;;;;;;37.87;22.47;;;12.20;99.90;;;;;;5039546;28;20224;-50
2022/10/31 03:33:28;;;;;;;37.50;23.13;;;12.20;99.90;;;;;;5024692;28;20637;-45
2022/10/31 03:35:58;;;;;;;39.27;22.40;;;12.30;99.90;;;;;;5039389;28;20197;-43
2022/10/31 03:38:26;;;;;;;36.83;22.50;;;12.30;99.90;;;;;;5042652;28;20207;-44
2022/10/31 03:40:56;;;;;;;36.27;21.80;;;12.30;99.90;;;;;;5039364;28;20195;-44
2022/10/31 03:43:29;;;;;;;40.40;24.03;;;12.40;99.90;;;;;;5035618;28;20575;-46
2022/10/31 03:45:57;;;;;;;46.67;24.00;;;12.40;99.90;;;;;;5040702;28;20209;-46
2022/10/31 03:48:26;;;;;;;38.00;23.20;;;12.40;99.90;;;;;;5026996;28;20222;-43
2022/10/31 03:51:01;;;;;;;35.73;24.37;;;12.40;99.90;;;;;;5039355;28;20280;-44
2022/10/31 03:53:34;;;;;;;36.87;24.70;;;12.40;99.90;;;;;;5041420;28;20254;-45
2022/10/31 03:56:06;;;;;;;41.40;23.37;;;12.50;99.90;;;;;;5041227;28;20219;-44
2022/10/31 03:58:39;;;;;;;45.00;24.50;;;12.50;99.90;;;;;;5041433;28;20255;-49
2022/10/31 04:01:07;;;;;;;39.07;24.07;;;12.50;99.90;;;;;;5039002;28;20195;-46
2022/10/31 04:03:38;;;;;;;39.23;24.03;;;12.50;99.90;;;;;;5031498;28;20234;-48
2022/10/31 04:06:10;;;;;;;41.70;24.07;;;12.50;99.90;;;;;;5037340;28;20680;-44
2022/10/31 04:08:43;;;;;;;43.20;25.00;;;12.50;99.90;;;;;;5040074;28;20708;-47
2022/10/31 04:11:16;;;;;;;42.37;24.60;;;12.50;99.90;;;;;;5033343;28;20207;-47
2022/10/31 04:13:47;;;;;;;39.47;23.37;;;12.50;99.90;;;;;;5031494;28;20227;-47
2022/10/31 04:16:22;;;;;;;38.43;24.40;;;12.50;99.90;;;;;;5037943;28;20546;-45
2022/10/31 04:18:50;;;;;;;47.83;26.20;;;12.50;99.90;;;;;;5021083;28;25363;-45
2022/10/31 04:21:17;;;;;;;39.30;25.00;;;12.60;99.90;;;;;;5041934;28;20196;-46
2022/10/31 04:23:44;;;;;;;40.63;25.80;;;12.60;99.90;;;;;;5037015;28;20223;-44
2022/10/31 04:26:18;;;;;;;56.23;26.77;;;12.60;99.90;;;;;;5042276;28;20199;-45
2022/10/31 04:28:46;;;;;;;53.27;26.43;;;12.70;99.90;;;;;;5032700;28;20211;-46
2022/10/31 04:31:13;;;;;;;61.73;28.33;;;12.70;99.90;;;;;;5039082;28;20218;-48
2022/10/31 04:33:41;;;;;;;49.23;28.87;;;12.70;99.90;;;;;;5037814;28;20219;-49
2022/10/31 04:36:10;;;;;;;53.93;29.60;;;12.80;99.90;;;;;;5024643;28;20696;-45
2022/10/31 04:38:37;;;;;;;55.23;28.43;;;12.80;99.90;;;;;;5040028;28;20191;-46
2022/10/31 04:41:12;;;;;;;65.30;30.47;;;12.80;99.90;;;;;;5042158;28;20210;-45
2022/10/31 04:43:52;;;;;;;47.53;28.97;;;12.90;99.90;;;;;;5037046;28;20313;-46
2022/10/31 04:46:20;;;;;;;67.93;31.00;;;12.90;99.90;;;;;;5036013;28;20211;-44
2022/10/31 04:48:47;;;;;;;58.97;30.13;;;12.90;99.90;;;;;;5037891;28;20237;-49
2022/10/31 04:51:15;;;;;;;60.83;29.50;;;12.90;99.90;;;;;;5026009;28;20207;-47
2022/10/31 04:53:42;;;;;;;65.23;30.50;;;12.90;99.90;;;;;;5038798;28;20250;-46
2022/10/31 04:56:29;;;;;;;63.00;30.80;;;12.90;99.90;;;;;;5042486;28;20214;-46
2022/10/31 04:59:03;;;;;;;60.23;29.40;;;12.90;99.90;;;;;;5041290;28;20203;-44
2022/10/31 05:01:40;;;;;;;57.30;29.57;;;13.00;99.90;;;;;;5033459;28;20215;-47
2022/10/31 05:04:07;;;;;;;66.90;32.20;;;13.00;99.90;;;;;;5039274;28;20245;-46
2022/10/31 05:06:35;;;;;;;56.43;28.37;;;13.00;99.90;;;;;;5033173;28;20203;-44
2022/10/31 05:09:02;;;;;;;62.43;29.93;;;13.00;99.90;;;;;;5031771;28;20196;-48
2022/10/31 05:11:29;;;;;;;62.80;29.53;;;13.00;99.90;;;;;;5041598;28;20298;-45
2022/10/31 05:14:03;;;;;;;64.27;30.10;;;13.00;99.90;;;;;;5037280;28;20208;-44
2022/10/31 05:16:48;;;;;;;65.60;28.40;;;13.00;99.90;;;;;;5034889;28;20349;-46
2022/10/31 05:19:34;;;;;;;50.47;27.70;;;13.00;99.90;;;;;;5041198;28;20217;-48
2022/10/31 05:22:24;;;;;;;55.03;27.80;;;13.00;99.90;;;;;;5015121;28;21227;-46
2022/10/31 05:24:51;;;;;;;54.40;28.00;;;13.00;99.90;;;;;;5038029;28;20668;-50
2022/10/31 05:27:18;;;;;;;58.83;28.77;;;13.00;99.90;;;;;;5031989;28;20200;-46
2022/10/31 05:29:45;;;;;;;58.37;27.90;;;13.00;99.90;;;;;;5029967;28;20203;-48
2022/10/31 05:32:12;;;;;;;58.33;27.70;;;13.00;99.90;;;;;;5035820;28;20199;-44
2022/10/31 05:34:57;;;;;;;54.60;26.63;;;13.00;99.90;;;;;;5029393;28;20250;-46
2022/10/31 05:38:00;;;;;;;58.97;27.20;;;13.00;99.90;;;;;;5021461;28;24157;-45
2022/10/31 05:40:28;;;;;;;50.43;27.33;;;12.90;99.90;;;;;;5044832;28;20211;-47
2022/10/31 05:42:58;;;;;;;56.87;27.30;;;13.00;99.90;;;;;;5037571;28;20285;-46
2022/10/31 05:45:25;;;;;;;66.50;27.13;;;13.00;99.90;;;;;;5036570;28;20192;-46
2022/10/31 05:48:00;;;;;;;54.07;26.80;;;13.00;99.90;;;;;;5044335;28;20199;-46
2022/10/31 05:50:45;;;;;;;57.20;25.60;;;13.00;99.90;;;;;;5025243;28;20369;-45
2022/10/31 05:53:13;;;;;;;51.37;27.90;;;13.00;99.90;;;;;;5017942;28;20222;-46
2022/10/31 05:55:41;;;;;;;52.30;27.23;;;13.00;99.90;;;;;;5032751;28;20254;-47
2022/10/31 05:58:11;;;;;;;73.23;25.83;;;13.00;99.90;;;;;;5038508;28;20207;-46
2022/10/31 06:00:41;;;;;;;55.77;25.57;;;13.00;99.90;;;;;;5040657;28;20207;-45
2022/10/31 06:03:10;;;;;;;57.23;28.53;;;13.00;99.90;;;;;;5034743;28;20224;-47
2022/10/31 06:05:44;;;;;;;52.60;25.53;;;13.00;99.90;;;;;;5031569;28;20222;-46
2022/10/31 06:08:11;;;;;;;51.07;27.57;;;12.90;99.90;;;;;;5033674;28;20203;-44
2022/10/31 06:10:41;;;;;;;58.00;25.93;;;13.00;99.90;;;;;;5013040;28;20211;-46
2022/10/31 06:13:08;;;;;;;52.43;26.77;;;13.00;99.90;;;;;;5026366;28;20602;-45
2022/10/31 06:15:48;;;;;;;55.20;25.67;;;13.00;99.90;;;;;;5053086;28;20812;-47
2022/10/31 06:18:17;;;;;;;73.80;25.43;;;13.00;99.90;;;;;;5034432;28;20195;-46
2022/10/31 06:20:49;;;;;;;53.23;23.57;;;13.00;99.90;;;;;;5036267;28;20202;-46
2022/10/31 06:23:16;;;;;;;54.77;26.17;;;13.00;99.90;;;;;;5020647;28;20384;-47
2022/10/31 06:25:50;;;;;;;63.60;25.43;;;12.90;99.90;;;;;;5020322;28;20222;-44
2022/10/31 06:28:18;;;;;;;59.77;24.97;;;12.90;99.90;;;;;;5025308;28;20217;-44
2022/10/31 06:31:09;;;;;;;53.80;23.53;;;12.90;99.90;;;;;;5030922;28;20203;-47
2022/10/31 06:33:36;;;;;;;50.87;24.17;;;12.90;99.90;;;;;;5033617;28;20782;-44
2022/10/31 06:36:04;;;;;;;54.47;23.87;;;12.90;99.90;;;;;;5032256;28;20224;-44
2022/10/31 06:38:31;;;;;;;46.97;23.40;;;12.90;99.90;;;;;;5041850;28;20265;-46
2022/10/31 06:41:03;;;;;;;44.13;22.63;;;12.90;99.90;;;;;;5027602;28;20272;-49
2022/10/31 06:43:38;;;;;;;45.97;22.50;;;12.90;99.90;;;;;;5035861;28;20223;-44
2022/10/31 06:46:30;;;;;;;39.77;19.83;;;13.00;99.90;;;;;;5036460;28;20369;-47
2022/10/31 06:49:08;;;;;;;55.43;21.57;;;12.90;99.90;;;;;;5036439;28;20589;-48
2022/10/31 06:51:42;;;;;;;40.77;20.73;;;12.90;99.90;;;;;;5027675;28;20243;-47
2022/10/31 06:54:09;;;;;;;47.17;20.17;;;12.90;99.90;;;;;;5034552;28;20250;-47
2022/10/31 06:56:38;;;;;;;51.07;21.90;;;13.00;99.90;;;;;;5042863;28;20230;-48
2022/10/31 06:59:05;;;;;;;54.87;19.97;;;13.00;99.90;;;;;;5012927;28;20265;-45
2022/10/31 07:01:52;;;;;;;57.20;20.67;;;13.00;99.90;;;;;;5028026;28;20235;-47
2022/10/31 07:04:20;;;;;;;72.87;22.20;;;13.00;99.90;;;;;;5031008;28;20206;-45
2022/10/31 07:06:48;;;;;;;57.27;21.50;;;13.00;99.90;;;;;;5030085;28;20204;-47
2022/10/31 07:09:14;;;;;;;45.97;21.43;;;13.00;99.90;;;;;;5032910;28;20187;-45
2022/10/31 07:11:43;;;;;;;39.83;21.67;;;13.00;99.90;;;;;;5039673;28;20203;-47
2022/10/31 07:14:09;;;;;;;41.10;21.90;;;13.10;99.90;;;;;;5014999;28;20236;-45
2022/10/31 07:16:36;;;;;;;63.30;22.90;;;13.10;99.90;;;;;;5042181;28;20297;-48
2022/10/31 07:19:05;;;;;;;69.87;22.30;;;13.10;99.90;;;;;;5036747;28;20203;-46
2022/10/31 07:21:32;;;;;;;54.27;21.77;;;13.10;99.90;;;;;;5038203;28;20200;-50
2022/10/31 07:23:59;;;;;;;46.80;21.83;;;13.10;99.90;;;;;;5031804;28;20238;-47
2022/10/31 07:26:47;;;;;;;59.20;22.77;;;13.10;99.90;;;;;;5036196;28;20260;-48
2022/10/31 07:29:14;;;;;;;48.27;23.20;;;13.10;99.90;;;;;;5020317;28;20214;-48
2022/10/31 07:31:41;;;;;;;68.07;22.27;;;13.10;99.90;;;;;;5028552;28;20214;-49
2022/10/31 07:34:16;;;;;;;51.07;21.10;;;13.10;99.90;;;;;;5033032;28;20207;-47
2022/10/31 07:37:02;;;;;;;45.70;21.93;;;13.10;99.90;;;;;;5036721;28;20230;-47
2022/10/31 07:39:30;;;;;;;64.40;20.93;;;13.10;99.90;;;;;;5036710;28;20912;-47
2022/10/31 07:42:00;;;;;;;37.60;20.47;;;13.10;99.90;;;;;;5024026;28;20290;-47
2022/10/31 07:44:27;;;;;;;37.87;19.83;;;13.10;99.90;;;;;;5019321;28;20203;-47
2022/10/31 07:47:20;;;;;;;77.67;20.50;;;13.10;99.90;;;;;;5030023;28;20207;-46
2022/10/31 07:50:07;;;;;;;54.77;21.33;;;13.00;99.90;;;;;;5032369;28;20221;-48
2022/10/31 07:53:01;;;;;;;61.13;18.77;;;13.00;99.90;;;;;;5029946;28;20252;-47
2022/10/31 07:55:48;;;;;;;44.20;19.70;;;13.00;99.90;;;;;;5031374;28;20740;-48
2022/10/31 07:58:17;;;;;;;39.60;20.13;;;13.00;99.90;;;;;;5034254;28;20299;-47
2022/10/31 08:00:47;;;;;;;47.20;17.43;;;13.00;99.90;;;;;;5019554;28;20214;-49
2022/10/31 08:03:19;;;;;;;55.60;18.53;;;13.00;99.90;;;;;;5033905;28;20224;-47
2022/10/31 08:06:05;;;;;;;58.40;20.17;;;13.00;99.90;;;;;;5026899;28;20218;-47
2022/10/31 08:08:51;;;;;;;45.73;17.27;;;13.00;99.90;;;;;;5025457;28;20293;-49
2022/10/31 08:11:19;;;;;;;47.77;18.70;;;12.90;99.90;;;;;;5030560;28;20294;-46
2022/10/31 08:13:47;;;;;;;38.00;17.83;;;13.00;99.90;;;;;;5025048;28;20223;-49
2022/10/31 08:16:15;;;;;;;49.67;16.17;;;13.00;99.90;;;;;;5022656;28;21048;-45
2022/10/31 08:18:56;;;;;;;32.63;15.37;;;13.00;99.90;;;;;;5020973;28;20233;-47
2022/10/31 08:21:23;;;;;;;27.50;14.23;;;13.00;99.90;;;;;;5035739;28;20773;-47
2022/10/31 08:23:50;;;;;;;37.67;14.90;;;13.00;99.90;;;;;;5018038;28;20223;-48
2022/10/31 08:26:20;;;;;;;31.57;14.63;;;13.00;99.90;;;;;;5033897;28;20188;-47
2022/10/31 08:28:49;;;;;;;34.87;15.63;;;13.00;99.90;;;;;;5021865;28;20998;-45
2022/10/31 08:31:16;;;;;;;27.80;14.53;;;13.00;99.90;;;;;;5003630;28;20207;-47
2022/10/31 08:33:43;;;;;;;28.73;13.73;;;13.00;99.90;;;;;;5026307;28;20223;-46
2022/10/31 08:36:18;;;;;;;32.63;14.27;;;12.90;99.90;;;;;;5028987;28;20802;-47
2022/10/31 08:38:51;;;;;;;25.93;13.50;;;13.00;99.90;;;;;;5028244;28;20312;-49
2022/10/31 08:41:18;;;;;;;24.27;13.87;;;13.00;99.90;;;;;;5028137;28;20332;-45
2022/10/31 08:43:45;;;;;;;32.43;13.97;;;13.00;99.90;;;;;;5032675;28;20215;-49
2022/10/31 08:46:14;;;;;;;38.20;13.43;;;12.90;99.90;;;;;;5013385;28;20253;-47
2022/10/31 08:48:42;;;;;;;23.03;13.43;;;12.90;99.90;;;;;;5033250;28;20199;-48
2022/10/31 08:51:11;;;;;;;27.47;17.30;;;12.90;99.90;;;;;;5031325;28;20458;-48
2022/10/31 08:53:37;;;;;;;24.17;15.43;;;13.20;99.90;;;;;;5039939;28;20271;-47
2022/10/31 08:56:30;;;;;;;40.63;14.23;;;13.20;99.90;;;;;;5027331;28;20251;-45
2022/10/31 08:58:59;;;;;;;45.70;14.67;;;13.20;99.90;;;;;;5034149;28;20204;-45
2022/10/31 09:01:54;;;;;;;35.23;14.50;;;13.20;99.90;;;;;;5014976;28;20211;-46
2022/10/31 09:04:20;;;;;;;26.67;13.37;;;13.10;99.90;;;;;;5031121;28;20219;-46
2022/10/31 09:06:47;;;;;;;29.63;14.00;;;13.20;99.90;;;;;;5039953;28;20187;-45
2022/10/31 09:09:15;;;;;;;29.37;15.60;;;13.20;99.90;;;;;;5040536;28;20206;-47
2022/10/31 09:11:42;;;;;;;23.67;12.63;;;13.30;99.90;;;;;;5031948;28;20317;-44
2022/10/31 09:14:11;;;;;;;23.83;14.10;;;13.30;99.90;;;;;;5039323;28;20226;-48
2022/10/31 09:16:58;;;;;;;24.20;12.67;;;13.30;99.90;;;;;;5029304;28;20226;-44
2022/10/31 09:19:38;;;;;;;24.43;14.17;;;13.30;99.90;;;;;;5042383;28;20314;-45
2022/10/31 09:22:06;;;;;;;23.60;13.03;;;13.30;99.90;;;;;;5043063;28;20207;-45
2022/10/31 09:24:33;;;;;;;38.13;14.83;;;13.30;99.90;;;;;;5040032;28;20183;-45
2022/10/31 09:27:00;;;;;;;33.87;14.43;;;13.40;99.90;;;;;;5039435;28;20195;-45
2022/10/31 09:29:27;;;;;;;26.93;14.53;;;13.30;99.90;;;;;;5040807;28;20214;-48
2022/10/31 09:32:00;;;;;;;31.40;13.17;;;13.30;99.90;;;;;;5028256;28;20235;-44
2022/10/31 09:34:29;;;;;;;27.17;13.97;;;13.30;99.90;;;;;;5039915;28;20187;-47
2022/10/31 09:37:03;;;;;;;26.13;13.80;;;13.20;99.90;;;;;;5042411;28;20228;-45
2022/10/31 09:39:29;;;;;;;23.37;14.10;;;13.30;99.90;;;;;;5041313;28;20199;-45
2022/10/31 09:42:29;;;;;;;26.20;14.43;;;13.40;99.90;;;;;;5040440;28;20207;-47
2022/10/31 09:45:04;;;;;;;27.30;15.13;;;13.40;99.90;;;;;;5044289;28;20205;-47
2022/10/31 09:47:52;;;;;;;29.30;14.50;;;13.30;99.90;;;;;;5024591;28;20580;-45
2022/10/31 09:50:47;;;;;;;27.40;13.30;;;13.30;99.90;;;;;;5038012;28;20199;-46
2022/10/31 09:53:38;;;;;;;20.60;13.37;;;13.40;99.90;;;;;;5041034;28;20298;-48
2022/10/31 09:56:09;;;;;;;24.07;14.47;;;13.30;99.90;;;;;;5044098;28;20226;-45
2022/10/31 09:58:44;;;;;;;24.20;14.13;;;13.40;99.90;;;;;;5040090;28;20199;-49
2022/10/31 10:01:26;;;;;;;24.97;13.80;;;13.40;99.90;;;;;;5045401;28;20494;-45
2022/10/31 10:04:00;;;;;;;23.37;13.27;;;13.50;99.90;;;;;;5023496;28;20234;-47
2022/10/31 10:06:50;;;;;;;26.80;13.33;;;13.40;99.90;;;;;;5031781;28;20245;-47
2022/10/31 10:09:36;;;;;;;22.90;13.43;;;13.40;99.90;;;;;;5038920;28;20691;-46
2022/10/31 10:12:38;;;;;;;24.50;13.93;;;13.40;99.90;;;;;;5038992;28;20246;-47
2022/10/31 10:15:39;;;;;;;29.10;13.83;;;13.40;99.90;;;;;;5038886;28;20187;-48
2022/10/31 10:18:19;;;;;;;21.47;12.23;;;13.50;99.90;;;;;;5023184;28;22139;-48
2022/10/31 10:21:00;;;;;;;27.60;12.70;;;13.50;99.90;;;;;;5037018;28;20849;-50
2022/10/31 10:23:39;;;;;;;21.80;12.23;;;13.50;99.90;;;;;;5038185;28;20214;-48
2022/10/31 10:26:16;;;;;;;29.37;13.00;;;13.50;99.90;;;;;;5037395;28;20223;-47
2022/10/31 10:28:47;;;;;;;21.73;12.13;;;13.50;99.90;;;;;;5030487;28;20224;-47
2022/10/31 10:31:17;;;;;;;24.87;12.57;;;13.50;99.90;;;;;;5038498;28;20922;-49
2022/10/31 10:33:55;;;;;;;20.87;12.13;;;13.50;99.90;;;;;;5030827;28;20310;-50
2022/10/31 10:36:29;;;;;;;21.07;12.03;;;13.50;99.90;;;;;;5043697;28;20203;-46
2022/10/31 10:39:00;;;;;;;22.37;12.40;;;13.50;99.90;;;;;;5041470;28;20265;-50
2022/10/31 10:41:32;;;;;;;17.83;11.33;;;13.50;99.90;;;;;;5041218;28;20616;-46
2022/10/31 10:43:59;;;;;;;20.47;11.87;;;13.50;99.90;;;;;;5034373;28;20219;-49
2022/10/31 10:49:23;;;;;;;23.20;13.53;;;13.50;99.90;;;;;;5033720;28;20230;-47
2022/10/31 10:51:59;;;;;;;26.97;13.47;;;13.60;99.90;;;;;;5029161;28;20203;-50
2022/10/31 10:54:46;;;;;;;23.20;13.13;;;13.70;99.90;;;;;;5038563;28;20203;-47
2022/10/31 10:57:39;;;;;;;22.23;12.53;;;13.70;99.90;;;;;;5032715;28;20714;-45
2022/10/31 11:00:19;;;;;;;22.27;12.07;;;13.70;99.90;;;;;;5043528;28;20227;-46
2022/10/31 11:02:45;;;;;;;19.83;12.43;;;13.80;99.90;;;;;;5030906;28;20230;-49
2022/10/31 11:05:23;;;;;;;20.80;12.00;;;13.80;99.90;;;;;;5019637;28;20257;-48
2022/10/31 11:07:51;;;;;;;17.90;10.90;;;13.90;99.90;;;;;;5031925;28;20217;-48
2022/10/31 11:10:19;;;;;;;20.93;12.23;;;13.80;99.90;;;;;;5038244;28;20568;-49
2022/10/31 11:12:58;;;;;;;20.10;12.43;;;13.90;99.90;;;;;;5032317;28;20893;-47
2022/10/31 11:15:28;;;;;;;18.20;10.73;;;13.90;99.90;;;;;;5035159;28;20659;-48
2022/10/31 11:17:56;;;;;;;16.93;10.73;;;13.90;99.90;;;;;;5034595;28;20216;-49
2022/10/31 11:20:31;;;;;;;19.00;12.30;;;14.00;99.90;;;;;;5018196;28;20297;-46
2022/10/31 11:23:05;;;;;;;18.17;9.97;;;14.00;99.90;;;;;;5038853;28;20230;-47
2022/10/31 11:25:33;;;;;;;15.27;9.93;;;14.00;99.90;;;;;;5032130;28;20199;-51
2022/10/31 11:28:01;;;;;;;17.00;10.17;;;14.00;99.90;;;;;;5028167;28;20198;-50
2022/10/31 11:30:28;;;;;;;16.03;10.80;;;14.00;99.90;;;;;;5034127;28;20194;-51
2022/10/31 11:32:55;;;;;;;18.73;11.03;;;14.00;99.90;;;;;;5031278;28;20273;-48
2022/10/31 11:35:24;;;;;;;17.27;11.90;;;14.10;99.90;;;;;;5037153;28;20187;-48
2022/10/31 11:37:54;;;;;;;18.87;12.33;;;14.20;99.90;;;;;;5019087;28;20215;-50
2022/10/31 11:40:24;;;;;;;19.57;11.53;;;14.20;99.90;;;;;;5040767;28;20191;-46
2022/10/31 11:42:55;;;;;;;19.17;11.03;;;14.30;99.90;;;;;;5028017;28;20226;-48
2022/10/31 11:45:30;;;;;;;18.53;11.80;;;14.30;99.90;;;;;;5032347;28;20195;-47
2022/10/31 11:47:58;;;;;;;18.70;11.03;;;14.30;99.90;;;;;;5036113;28;20710;-50
2022/10/31 11:50:36;;;;;;;18.77;12.07;;;14.30;99.90;;;;;;5043394;28;20195;-51
2022/10/31 11:53:04;;;;;;;19.77;12.63;;;14.30;99.90;;;;;;5022047;28;20597;-52
2022/10/31 11:55:34;;;;;;;20.90;12.63;;;14.30;99.90;;;;;;5038162;28;20208;-51
2022/10/31 11:58:02;;;;;;;17.00;11.70;;;14.30;99.90;;;;;;5030014;28;20261;-48
2022/10/31 12:00:30;;;;;;;23.53;11.87;;;14.20;99.90;;;;;;5042350;28;20645;-50
2022/10/31 12:03:15;;;;;;;21.20;12.73;;;14.30;99.90;;;;;;5035572;28;20207;-51
2022/10/31 12:05:44;;;;;;;16.37;12.43;;;14.30;99.90;;;;;;5024186;28;20217;-49
2022/10/31 12:08:14;;;;;;;19.10;13.53;;;14.30;99.90;;;;;;5019702;28;20210;-48
2022/10/31 12:10:59;;;;;;;19.37;13.57;;;14.30;99.90;;;;;;5033974;28;20223;-49
2022/10/31 12:13:34;;;;;;;20.83;13.27;;;14.30;99.90;;;;;;5019619;28;20230;-51
2022/10/31 12:16:09;;;;;;;18.83;13.43;;;14.40;99.90;;;;;;5033136;28;20226;-49
2022/10/31 12:18:51;;;;;;;22.43;13.23;;;14.50;99.90;;;;;;5035061;28;20599;-54
2022/10/31 12:21:32;;;;;;;16.50;11.90;;;14.50;99.90;;;;;;5040890;28;20207;-48
2022/10/31 12:24:14;;;;;;;19.47;13.63;;;14.50;99.90;;;;;;5019325;28;20979;-48
2022/10/31 12:26:49;;;;;;;24.93;13.50;;;14.60;99.90;;;;;;5028920;28;20286;-53
2022/10/31 12:29:35;;;;;;;21.63;13.33;;;14.60;99.90;;;;;;5025768;28;20222;-51
2022/10/31 12:32:15;;;;;;;19.67;13.57;;;14.80;99.90;;;;;;5039803;28;20198;-50
2022/10/31 12:35:09;;;;;;;26.80;14.10;;;14.80;99.90;;;;;;5025771;28;20210;-52
2022/10/31 12:37:51;;;;;;;20.47;14.03;;;14.70;99.90;;;;;;5030470;28;20218;-55
2022/10/31 12:40:43;;;;;;;20.20;13.00;;;14.70;99.90;;;;;;5020433;28;20553;-49
2022/10/31 12:43:25;;;;;;;23.37;12.70;;;14.70;99.90;;;;;;5018372;28;20306;-55
2022/10/31 12:45:55;;;;;;;19.40;13.67;;;14.70;99.90;;;;;;5032977;28;20207;-52
2022/10/31 12:48:41;;;;;;;19.63;13.13;;;14.70;99.90;;;;;;5027463;28;20196;-48
2022/10/31 12:51:16;;;;;;;19.73;13.03;;;14.80;99.90;;;;;;5036729;28;20203;-54
2022/10/31 12:53:57;;;;;;;21.07;13.70;;;14.80;99.90;;;;;;5035600;28;20246;-50
2022/10/31 12:56:38;;;;;;;22.13;14.10;;;14.90;99.90;;;;;;5021588;28;20196;-50
2022/10/31 12:59:12;;;;;;;20.13;13.00;;;14.90;99.90;;;;;;5029556;28;20275;-52
2022/10/31 13:01:43;;;;;;;17.27;12.20;;;14.90;99.90;;;;;;5037086;28;20213;-47